Time;durP1;ratioP1;P1;durP2;ratioP2;P2;SDS_P1;SDS_P2;PMS_P1;PMS_P2;Temp;Humidity;BMP_temperature;BMP_pressure;BME280_temperature;BME280_humidity;BME280_pressure;Samples;Min_cycle;Max_cycle;Signal;HPM_P1;HPM_P2
2021/11/01 00:02:18;;;;;;;29.33;20.85;;;;;;;8.44;100.00;99429.22;5024443;28;20084;-55
2021/11/01 00:04:44;;;;;;;26.25;19.45;;;;;;;8.35;100.00;99429.91;5024319;28;20029;-53
2021/11/01 00:07:12;;;;;;;29.33;20.42;;;;;;;8.44;100.00;99424.97;5024740;28;20112;-55
2021/11/01 00:09:37;;;;;;;26.75;20.63;;;;;;;8.39;100.00;99424.03;5024635;28;20390;-49
2021/11/01 00:12:04;;;;;;;27.55;20.33;;;;;;;8.38;100.00;99415.53;5024433;28;20036;-52
2021/11/01 00:14:30;;;;;;;29.67;20.30;;;;;;;8.58;100.00;99410.69;5024819;28;20500;-54
2021/11/01 00:16:57;;;;;;;29.83;21.45;;;;;;;8.24;100.00;99419.56;5024964;28;20111;-49
2021/11/01 00:19:24;;;;;;;31.38;20.48;;;;;;;8.43;100.00;99404.53;5025161;28;20044;-52
2021/11/01 00:21:50;;;;;;;26.98;20.90;;;;;;;9.07;100.00;99402.78;5025376;28;20037;-50
2021/11/01 00:24:15;;;;;;;26.95;19.83;;;;;;;9.06;100.00;99396.81;5023932;28;20041;-49
2021/11/01 00:26:41;;;;;;;27.55;20.23;;;;;;;8.68;100.00;99396.34;5024091;28;20037;-52
2021/11/01 00:29:06;;;;;;;28.17;21.58;;;;;;;8.74;100.00;99393.03;5024184;28;20057;-55
2021/11/01 00:31:33;;;;;;;28.40;21.27;;;;;;;8.68;100.00;99393.78;5024452;28;20037;-53
2021/11/01 00:34:00;;;;;;;25.58;20.05;;;;;;;9.25;100.00;99387.66;5024580;28;20040;-52
2021/11/01 00:36:25;;;;;;;28.60;20.75;;;;;;;9.25;100.00;99392.75;5024345;28;20108;-52
2021/11/01 00:38:52;;;;;;;29.77;21.20;;;;;;;9.01;100.00;99385.66;5026901;28;20109;-50
2021/11/01 00:41:18;;;;;;;27.83;20.60;;;;;;;9.16;100.00;99377.34;5028493;28;20106;-52
2021/11/01 00:43:44;;;;;;;30.10;22.50;;;;;;;8.75;100.00;99387.09;5028282;28;20037;-56
2021/11/01 00:46:10;;;;;;;29.45;21.73;;;;;;;8.93;100.00;99379.66;5028378;28;20053;-52
2021/11/01 00:48:36;;;;;;;26.20;21.00;;;;;;;8.81;100.00;99376.94;5028049;28;20033;-51
2021/11/01 00:51:03;;;;;;;29.58;21.73;;;;;;;9.31;100.00;99379.19;5028187;28;20079;-53
2021/11/01 00:53:32;;;;;;;30.15;21.77;;;;;;;9.35;100.00;99376.66;5027029;28;20034;-56
2021/11/01 00:55:59;;;;;;;28.50;21.23;;;;;;;9.07;100.00;99372.13;5020188;28;20484;-53
2021/11/01 00:58:26;;;;;;;29.25;21.00;;;;;;;9.37;100.00;99374.97;5028151;28;20033;-54
2021/11/01 01:00:53;;;;;;;29.08;21.30;;;;;;;9.21;100.00;99365.47;5028096;28;20111;-53
2021/11/01 01:03:20;;;;;;;29.95;20.58;;;;;;;9.12;100.00;99366.22;5027532;28;20448;-56
2021/11/01 01:05:47;;;;;;;27.08;20.60;;;;;;;9.20;100.00;99351.00;5028031;28;20037;-54
2021/11/01 01:08:17;;;;;;;28.50;20.95;;;;;;;9.11;100.00;99345.78;5027800;28;20537;-53
2021/11/01 01:10:44;;;;;;;27.90;21.25;;;;;;;9.25;100.00;99351.03;5027854;28;20420;-54
2021/11/01 01:13:11;;;;;;;27.90;21.10;;;;;;;9.18;100.00;99343.28;5027764;28;20094;-49
2021/11/01 01:15:45;;;;;;;27.17;20.23;;;;;;;9.09;100.00;99339.81;5027696;28;20056;-55
2021/11/01 01:18:18;;;;;;;28.58;20.40;;;;;;;9.12;100.00;99333.03;5027866;28;20030;-53
2021/11/01 01:20:44;;;;;;;27.63;21.50;;;;;;;9.19;100.00;99326.28;5027807;28;20133;-51
2021/11/01 01:23:10;;;;;;;30.38;20.85;;;;;;;9.05;100.00;99331.25;5027340;28;20120;-52
2021/11/01 01:25:41;;;;;;;28.13;19.98;;;;;;;8.99;100.00;99331.19;5027367;28;20125;-52
2021/11/01 01:28:08;;;;;;;27.00;21.35;;;;;;;9.07;100.00;99331.28;5027457;28;20038;-52
2021/11/01 01:30:35;;;;;;;30.98;20.73;;;;;;;9.22;100.00;99322.91;5027304;28;20105;-53
2021/11/01 01:33:00;;;;;;;27.13;20.67;;;;;;;8.93;100.00;99323.47;5027446;28;20429;-55
2021/11/01 01:35:27;;;;;;;29.38;21.65;;;;;;;9.10;100.00;99321.06;5027568;28;20087;-52
2021/11/01 01:37:53;;;;;;;27.73;20.67;;;;;;;9.00;100.00;99320.13;5027354;28;20112;-54
2021/11/01 01:40:20;;;;;;;28.88;21.55;;;;;;;8.93;100.00;99311.56;5027740;28;20044;-54
2021/11/01 01:42:45;;;;;;;31.92;21.90;;;;;;;8.99;100.00;99304.81;5027242;28;20095;-54
2021/11/01 01:45:12;;;;;;;28.48;21.15;;;;;;;9.06;100.00;99312.56;5027224;28;20037;-56
2021/11/01 01:47:41;;;;;;;30.95;22.02;;;;;;;9.05;100.00;99310.81;5027628;28;20038;-54
2021/11/01 01:50:11;;;;;;;29.10;21.15;;;;;;;9.27;100.00;99314.44;5026800;28;20052;-49
2021/11/01 01:52:38;;;;;;;25.23;19.83;;;;;;;9.31;100.00;99320.44;5026961;28;20551;-54
2021/11/01 01:55:07;;;;;;;27.48;21.02;;;;;;;8.97;100.00;99309.03;5026667;28;20044;-55
2021/11/01 01:57:33;;;;;;;31.20;20.80;;;;;;;9.11;100.00;99305.78;5026988;28;20029;-55
2021/11/01 01:59:59;;;;;;;29.85;21.02;;;;;;;8.83;100.00;99304.66;5027292;28;20048;-53
2021/11/01 02:02:25;;;;;;;26.83;21.20;;;;;;;9.09;100.00;99311.72;5026739;28;20048;-56
2021/11/01 02:04:50;;;;;;;29.02;22.52;;;;;;;8.82;100.00;99300.38;5026780;28;20056;-55
2021/11/01 02:07:29;;;;;;;27.85;20.27;;;;;;;8.99;100.00;99300.56;5026859;28;20037;-55
2021/11/01 02:10:10;;;;;;;29.98;22.73;;;;;;;8.90;100.00;99293.66;5026857;28;20053;-56
2021/11/01 02:12:41;;;;;;;30.00;20.27;;;;;;;8.60;100.00;99298.47;5026565;28;20078;-53
2021/11/01 02:15:18;;;;;;;28.92;21.48;;;;;;;8.91;100.00;99303.03;5026555;28;20033;-51
2021/11/01 02:17:47;;;;;;;29.67;21.90;;;;;;;9.04;100.00;99288.69;5026527;28;20131;-57
2021/11/01 02:20:27;;;;;;;29.38;22.88;;;;;;;9.27;100.00;99294.00;5026457;28;20406;-50
2021/11/01 02:23:14;;;;;;;28.25;20.58;;;;;;;9.00;100.00;99293.75;5026375;28;20502;-53
2021/11/01 02:25:45;;;;;;;28.40;21.50;;;;;;;8.48;100.00;99285.56;5026175;28;20502;-53
2021/11/01 02:28:15;;;;;;;32.53;22.92;;;;;;;8.93;100.00;99293.72;5026627;28;20033;-56
2021/11/01 02:30:43;;;;;;;36.38;22.20;;;;;;;8.96;100.00;99281.78;5026078;28;20599;-55
2021/11/01 02:33:11;;;;;;;31.58;22.13;;;;;;;9.08;100.00;99284.47;5026119;28;20464;-54
2021/11/01 02:35:38;;;;;;;29.67;22.73;;;;;;;9.02;100.00;99280.19;5026074;28;20029;-52
2021/11/01 02:38:05;;;;;;;30.90;22.08;;;;;;;9.01;100.00;99275.03;5025676;28;20040;-54
2021/11/01 02:40:33;;;;;;;33.70;23.00;;;;;;;8.66;100.00;99275.56;5026616;28;20034;-54
2021/11/01 02:42:59;;;;;;;29.95;22.92;;;;;;;8.88;100.00;99269.84;5025907;28;20038;-53
2021/11/01 02:45:26;;;;;;;29.42;22.52;;;;;;;8.72;100.00;99267.09;5025779;28;20038;-54
2021/11/01 02:47:52;;;;;;;30.33;22.48;;;;;;;8.88;100.00;99263.88;5025796;28;20052;-53
2021/11/01 02:50:19;;;;;;;28.88;21.38;;;;;;;9.08;100.00;99264.03;5026066;28;20147;-51
2021/11/01 02:52:45;;;;;;;26.52;21.17;;;;;;;8.96;100.00;99266.47;5025796;28;20041;-55
2021/11/01 02:55:13;;;;;;;27.40;21.63;;;;;;;8.81;100.00;99257.84;5025571;28;20374;-54
2021/11/01 02:57:41;;;;;;;31.80;22.58;;;;;;;8.79;100.00;99256.13;5025360;28;20033;-50
2021/11/01 03:00:09;;;;;;;31.60;22.42;;;;;;;8.48;100.00;99255.81;5025440;28;20036;-52
2021/11/01 03:02:34;;;;;;;30.42;22.60;;;;;;;8.98;100.00;99257.16;5025202;28;20406;-54
2021/11/01 03:05:06;;;;;;;32.28;22.98;;;;;;;9.06;100.00;99248.72;5025713;28;20040;-52
2021/11/01 03:07:32;;;;;;;30.23;22.98;;;;;;;8.58;100.00;99246.56;5025578;28;20033;-50
2021/11/01 03:09:58;;;;;;;30.77;22.90;;;;;;;8.68;100.00;99239.00;5025690;28;20463;-50
2021/11/01 03:12:25;;;;;;;29.75;21.30;;;;;;;8.75;100.00;99237.38;5025515;28;20131;-54
2021/11/01 03:14:55;;;;;;;31.00;20.77;;;;;;;8.74;100.00;99240.78;5024931;28;20072;-55
2021/11/01 03:17:23;;;;;;;33.13;23.02;;;;;;;8.72;100.00;99241.59;5023937;28;20034;-52
2021/11/01 03:20:15;;;;;;;30.92;22.63;;;;;;;8.61;100.00;99242.34;5025359;28;20029;-55
2021/11/01 03:22:51;;;;;;;31.58;23.08;;;;;;;8.08;100.00;99237.44;5025204;28;20402;-52
2021/11/01 03:25:20;;;;;;;;;;;;;;;8.34;100.00;99236.91;5025570;28;20044;-55
2021/11/01 03:27:48;;;;;;;31.95;22.20;;;;;;;8.63;100.00;99238.09;5023867;28;19924;-52
2021/11/01 03:30:15;;;;;;;28.80;22.45;;;;;;;8.74;100.00;99237.38;5025369;28;20026;-51
2021/11/01 03:32:43;;;;;;;32.38;22.73;;;;;;;8.02;100.00;99234.00;5025283;28;20405;-56
2021/11/01 03:35:09;;;;;;;32.28;23.13;;;;;;;8.40;100.00;99239.56;5024634;28;20053;-52
2021/11/01 03:37:36;;;;;;;31.13;23.60;;;;;;;8.45;100.00;99240.47;5025092;28;20041;-53
2021/11/01 03:40:04;;;;;;;31.95;23.50;;;;;;;8.49;100.00;99244.75;5025251;28;20037;-51
2021/11/01 03:42:31;;;;;;;31.85;23.10;;;;;;;8.41;100.00;99238.72;5025036;28;20512;-53
2021/11/01 03:45:08;;;;;;;33.22;21.95;;;;;;;8.51;100.00;99242.25;5024993;28;20102;-51
2021/11/01 03:47:39;;;;;;;30.48;22.23;;;;;;;8.37;100.00;99237.00;5024558;28;20029;-53
2021/11/01 03:50:16;;;;;;;29.48;22.67;;;;;;;8.54;100.00;99238.00;5024867;28;20030;-52
2021/11/01 03:52:44;;;;;;;33.55;23.25;;;;;;;8.69;100.00;99239.88;5024758;28;20037;-52
2021/11/01 03:55:10;;;;;;;35.28;23.27;;;;;;;8.07;100.00;99235.75;5024569;28;20044;-49
2021/11/01 03:57:36;;;;;;;30.40;23.27;;;;;;;8.62;100.00;99238.94;5025090;28;20037;-55
2021/11/01 04:00:06;;;;;;;32.58;23.42;;;;;;;8.64;100.00;99233.84;5025088;28;20401;-54
2021/11/01 04:02:32;;;;;;;34.05;23.48;;;;;;;8.13;100.00;99232.41;5024847;28;20037;-53
2021/11/01 04:05:00;;;;;;;30.23;22.98;;;;;;;8.46;100.00;99231.09;5024742;28;20113;-52
2021/11/01 04:07:26;;;;;;;32.03;22.50;;;;;;;8.21;100.00;99237.59;5024752;28;20346;-51
2021/11/01 04:09:52;;;;;;;31.58;24.05;;;;;;;8.54;100.00;99240.56;5024836;28;20045;-52
2021/11/01 04:12:18;;;;;;;32.78;23.55;;;;;;;8.57;100.00;99240.59;5024084;28;20036;-51
2021/11/01 04:14:54;;;;;;;31.85;24.20;;;;;;;8.59;100.00;99245.72;5024032;28;20076;-55
2021/11/01 04:22:34;;;;;;;29.98;23.23;;;;;;;8.91;100.00;99256.22;5024769;28;20041;-50
2021/11/01 04:25:04;;;;;;;34.92;23.45;;;;;;;8.90;100.00;99254.53;5024399;28;20037;-55
2021/11/01 04:27:29;;;;;;;35.75;24.58;;;;;;;8.34;100.00;99252.22;5024461;28;20025;-54
2021/11/01 04:29:55;;;;;;;34.03;24.67;;;;;;;8.49;100.00;99257.50;5024417;28;20041;-51
2021/11/01 04:32:38;;;;;;;35.47;24.88;;;;;;;8.62;100.00;99253.41;5024291;28;20089;-51
2021/11/01 04:37:34;;;;;;;33.15;23.48;;;;;;;8.53;100.00;99248.19;5024424;28;20071;-56
2021/11/01 04:55:26;;;;;;;36.60;24.88;;;;;;;7.69;100.00;99268.38;5023851;28;20030;-52
2021/11/01 04:57:52;;;;;;;32.80;24.38;;;;;;;7.99;100.00;99261.97;5024052;28;20038;-53
2021/11/01 05:00:18;;;;;;;33.65;24.85;;;;;;;8.54;100.00;99263.50;5023769;28;20033;-50
2021/11/01 05:02:55;;;;;;;31.08;23.80;;;;;;;8.53;100.00;99260.97;5023895;28;20509;-50
2021/11/01 05:05:21;;;;;;;36.35;24.77;;;;;;;8.32;100.00;99259.84;5023486;28;20049;-48
2021/11/01 05:07:47;;;;;;;33.35;23.92;;;;;;;8.61;100.00;99267.84;5023751;28;20840;-52
2021/11/01 05:10:22;;;;;;;35.40;24.08;;;;;;;8.25;100.00;99268.25;5024120;28;20037;-53
2021/11/01 05:12:48;;;;;;;36.70;25.27;;;;;;;8.02;100.00;99272.22;5023882;28;20030;-54
2021/11/01 05:15:39;;;;;;;33.38;24.92;;;;;;;8.56;100.00;99276.31;5023848;28;20033;-51
2021/11/01 05:18:13;;;;;;;33.70;24.83;;;;;;;8.32;100.00;99269.19;5023945;28;20313;-52
2021/11/01 05:20:43;;;;;;;38.63;25.33;;;;;;;8.33;100.00;99266.66;5023788;28;20034;-53
2021/11/01 05:23:28;;;;;;;37.65;26.58;;;;;;;8.51;100.00;99268.59;5023664;28;20040;-52
2021/11/01 05:26:09;;;;;;;34.50;24.73;;;;;;;8.15;100.00;99267.31;5027976;28;20127;-49
2021/11/01 05:28:45;;;;;;;38.75;25.83;;;;;;;7.73;100.00;99276.94;5027992;28;20072;-48
2021/11/01 05:31:25;;;;;;;39.22;26.92;;;;;;;7.52;100.00;99269.81;5025865;28;20395;-48
2021/11/01 05:34:03;;;;;;;42.72;27.05;;;;;;;8.34;100.00;99270.91;5027720;28;20038;-53
2021/11/01 05:36:29;;;;;;;38.40;25.88;;;;;;;8.45;100.00;99286.38;5027016;28;20034;-53
2021/11/01 05:38:55;;;;;;;41.50;28.02;;;;;;;7.75;100.00;99286.28;5026806;28;20034;-55
2021/11/01 05:41:22;;;;;;;43.15;26.85;;;;;;;7.40;100.00;99280.69;5027215;28;20402;-53
2021/11/01 05:43:49;;;;;;;38.97;28.42;;;;;;;7.21;100.00;99283.75;5023292;28;20046;-53
2021/11/01 05:46:15;;;;;;;39.78;28.27;;;;;;;7.37;100.00;99281.47;5026631;28;20029;-54
2021/11/01 05:48:49;;;;;;;42.20;27.25;;;;;;;7.58;100.00;99277.53;5027170;28;20108;-54
2021/11/01 05:51:16;;;;;;;38.33;25.80;;;;;;;7.88;100.00;99287.31;5027434;28;20164;-52
2021/11/01 05:53:44;;;;;;;33.17;24.35;;;;;;;8.01;100.00;99275.63;5026261;28;20044;-57
2021/11/01 06:07:55;;;;;;;37.10;25.33;;;;;;;8.45;100.00;99299.13;5026420;28;20072;-56
2021/11/01 06:14:52;;;;;;;34.30;25.08;;;;;;;8.75;100.00;99308.84;5026263;28;20145;-57
2021/11/01 06:17:18;;;;;;;35.67;25.77;;;;;;;9.05;100.00;99303.16;5026688;28;20021;-54
2021/11/01 06:19:43;;;;;;;36.85;25.98;;;;;;;8.48;100.00;99311.06;5026623;28;20529;-52
2021/11/01 06:22:10;;;;;;;35.47;24.73;;;;;;;8.53;100.00;99311.97;5026691;28;20381;-51
2021/11/01 06:24:52;;;;;;;34.35;25.80;;;;;;;8.04;100.00;99314.75;5026071;28;20065;-54
2021/11/01 06:27:21;;;;;;;36.22;25.35;;;;;;;8.16;100.00;99320.00;5026486;28;20052;-53
2021/11/01 06:32:48;;;;;;;33.22;24.27;;;;;;;9.40;100.00;99331.56;5013606;28;20038;-56
2021/11/01 06:43:26;;;;;;;34.08;24.67;;;;;;;9.51;100.00;99334.22;5021772;28;20397;-54
2021/11/01 06:51:11;;;;;;;37.65;26.15;;;;;;;10.00;100.00;99357.59;5005944;28;20137;-58
2021/11/01 07:14:04;;;;;;;32.35;23.98;;;;;;;9.52;100.00;99353.84;5006085;28;20037;-54
2021/11/01 07:15:46;;;;;;;34.55;25.10;;;;;;;10.14;100.00;99357.66;5005929;28;20497;-57
2021/11/01 07:29:51;;;;;;;34.20;25.05;;;;;;;10.59;100.00;99381.81;5005741;28;20049;-54
2021/11/01 08:36:33;;;;;;;29.52;23.27;;;;;;;11.96;98.62;99445.34;5004534;28;20084;-57
2021/11/01 08:39:12;;;;;;;31.23;24.40;;;;;;;11.44;100.00;99456.38;5004799;28;20033;-54
2021/11/01 08:41:58;;;;;;;31.17;23.45;;;;;;;11.73;100.00;99453.84;5004511;28;20516;-56
2021/11/01 08:49:49;;;;;;;33.67;23.45;;;;;;;11.95;100.00;99482.13;5004901;28;20038;-57
2021/11/01 09:28:37;;;;;;;31.80;23.85;;;;;;;12.61;96.97;99520.59;5008037;28;20041;-58
2021/11/01 09:37:13;;;;;;;29.15;22.48;;;;;;;12.66;97.20;99534.28;5007832;28;20505;-52
2021/11/01 09:42:07;;;;;;;32.72;25.02;;;;;;;12.80;97.54;99531.69;5007559;28;20044;-55
2021/11/01 09:44:33;;;;;;;34.55;24.88;;;;;;;12.80;97.19;99526.53;5007848;28;20037;-53
2021/11/01 09:47:03;;;;;;;30.17;23.15;;;;;;;13.13;95.66;99531.63;5007417;28;20478;-53
2021/11/01 09:49:30;;;;;;;33.47;23.30;;;;;;;13.07;96.54;99530.75;5007536;28;20489;-49
2021/11/01 09:51:59;;;;;;;31.10;22.92;;;;;;;13.33;95.51;99544.41;5007424;28;20061;-49
2021/11/01 09:54:30;;;;;;;32.15;23.23;;;;;;;13.17;95.68;99548.75;5007103;28;20058;-54
2021/11/01 09:57:05;;;;;;;29.95;22.30;;;;;;;13.11;96.34;99546.16;5007803;28;20095;-54
2021/11/01 09:59:38;;;;;;;32.83;23.55;;;;;;;13.28;95.47;99538.44;5007570;28;20120;-51
2021/11/01 10:02:10;;;;;;;29.38;23.00;;;;;;;13.19;99.30;99530.72;5006907;28;20041;-56
2021/11/01 10:04:37;;;;;;;29.20;22.77;;;;;;;13.48;94.87;99535.78;5007226;28;20041;-54
2021/11/01 10:07:21;;;;;;;30.90;22.88;;;;;;;13.38;96.05;99521.25;5006925;28;20029;-52
2021/11/01 10:10:08;;;;;;;34.70;22.80;;;;;;;13.28;98.62;99517.88;5006974;28;20029;-54
2021/11/01 10:12:36;;;;;;;30.17;23.45;;;;;;;13.36;97.67;99507.56;5007236;28;20611;-58
2021/11/01 10:17:55;;;;;;;27.15;20.50;;;;;;;13.57;93.21;99499.72;5006839;28;20080;-57
2021/11/01 10:20:23;;;;;;;26.95;20.73;;;;;;;13.40;95.66;99498.94;5006945;28;20402;-57
2021/11/01 10:22:49;;;;;;;27.20;20.55;;;;;;;13.90;92.53;99508.94;5006659;28;20375;-52
2021/11/01 10:25:18;;;;;;;28.13;21.17;;;;;;;13.67;93.45;99508.22;5006494;28;20040;-53
2021/11/01 10:27:59;;;;;;;29.90;22.33;;;;;;;13.53;94.59;99504.88;5006568;28;20034;-57
2021/11/01 10:30:32;;;;;;;26.45;20.70;;;;;;;13.29;97.97;99505.88;5006449;28;20037;-54
2021/11/01 10:33:03;;;;;;;31.35;22.58;;;;;;;13.20;97.73;99505.00;5006811;28;20116;-55
2021/11/01 10:35:32;;;;;;;31.77;22.70;;;;;;;13.02;100.00;99515.34;5006009;28;20034;-56
2021/11/01 10:38:14;;;;;;;30.00;21.10;;;;;;;13.37;98.78;99517.84;5006618;28;20030;-54
2021/11/01 11:11:33;;;;;;;31.42;23.23;;;;;;;12.98;100.00;99536.78;5004450;28;20037;-55
2021/11/01 11:17:06;;;;;;;28.92;21.70;;;;;;;13.62;100.00;99546.84;5005556;28;20056;-55
2021/11/01 11:19:25;;;;;;;35.15;24.90;;;;;;;13.35;100.00;99544.41;5005194;28;20116;-58
2021/11/01 11:33:58;;;;;;;30.20;22.55;;;;;;;14.14;97.44;99538.81;5015246;28;20434;-55
2021/11/01 11:50:28;;;;;;;25.00;19.27;;;;;;;13.75;100.00;99548.50;5023877;28;20421;-58
2021/11/01 11:52:54;;;;;;;26.48;20.73;;;;;;;13.86;100.00;99542.41;5024925;28;20040;-58
2021/11/01 11:55:25;;;;;;;26.40;19.88;;;;;;;13.99;100.00;99541.47;5023880;28;20045;-55
2021/11/01 11:57:59;;;;;;;27.75;20.13;;;;;;;13.75;100.00;99537.34;5025030;28;20367;-55
2021/11/01 12:00:27;;;;;;;27.60;19.77;;;;;;;13.94;100.00;99540.66;5025122;28;20144;-55
2021/11/01 12:02:55;;;;;;;28.67;20.42;;;;;;;13.69;100.00;99535.69;5023366;28;20033;-57
2021/11/01 12:05:32;;;;;;;26.83;19.58;;;;;;;13.84;100.00;99529.56;5024635;28;20036;-53
2021/11/01 12:08:12;;;;;;;26.00;20.45;;;;;;;13.94;100.00;99545.81;5024986;28;20044;-56
2021/11/01 12:18:45;;;;;;;27.30;19.08;;;;;;;13.39;100.00;99534.09;5024316;28;20040;-54
2021/11/01 12:21:11;;;;;;;25.45;19.17;;;;;;;13.44;100.00;99526.38;5024846;28;20034;-56
2021/11/01 12:23:39;;;;;;;26.77;19.10;;;;;;;13.28;100.00;99527.31;5024847;28;20125;-56
2021/11/01 12:26:09;;;;;;;24.70;18.65;;;;;;;13.48;100.00;99536.63;5023915;28;20038;-55
2021/11/01 12:28:36;;;;;;;27.50;19.23;;;;;;;13.64;100.00;99534.00;5024480;28;20498;-53
2021/11/01 12:31:02;;;;;;;23.92;17.23;;;;;;;13.60;100.00;99532.31;5024477;28;20132;-55
2021/11/01 12:33:29;;;;;;;23.17;17.08;;;;;;;13.45;100.00;99530.63;5020554;28;20671;-55
2021/11/01 12:36:00;;;;;;;22.80;18.25;;;;;;;13.48;100.00;99523.75;5028448;28;20041;-52
2021/11/01 12:39:11;;;;;;;23.38;17.85;;;;;;;13.70;100.00;99524.50;5029095;28;20519;-52
2021/11/01 12:47:59;;;;;;;26.27;18.48;;;;;;;13.60;100.00;99509.16;5028374;28;20088;-53
2021/11/01 12:57:31;;;;;;;31.25;20.35;;;;;;;13.50;100.00;99518.63;5028545;28;20053;-54
2021/11/01 12:59:58;;;;;;;26.25;19.52;;;;;;;13.48;100.00;99520.34;5028214;28;20511;-52
2021/11/01 13:02:25;;;;;;;25.65;18.30;;;;;;;13.34;100.00;99525.56;5026747;28;20400;-55
2021/11/01 13:04:51;;;;;;;30.33;20.30;;;;;;;13.25;100.00;99525.59;5027557;28;20056;-56
2021/11/01 13:10:36;;;;;;;28.73;20.60;;;;;;;13.49;100.00;99535.75;5027735;28;20639;-55
2021/11/01 13:18:36;;;;;;;29.27;21.50;;;;;;;13.52;100.00;99537.47;5027783;28;20083;-57
2021/11/01 13:21:13;;;;;;;28.77;20.52;;;;;;;13.46;100.00;99525.50;5027801;28;20036;-58
2021/11/01 13:23:54;;;;;;;27.33;19.40;;;;;;;13.10;100.00;99529.03;5027657;28;20041;-56
2021/11/01 13:37:31;;;;;;;24.47;15.37;;;;;;;13.03;100.00;99531.63;5027299;28;20519;-57
2021/11/01 13:40:01;;;;;;;20.02;14.20;;;;;;;13.02;100.00;99529.94;5026983;28;20311;-57
2021/11/01 13:42:27;;;;;;;18.90;13.32;;;;;;;13.18;100.00;99529.88;5027724;28;20034;-54
2021/11/01 13:44:52;;;;;;;20.05;13.30;;;;;;;13.26;100.00;99537.56;5026164;28;20529;-57
2021/11/01 13:47:18;;;;;;;18.42;12.68;;;;;;;13.14;100.00;99533.31;5027290;28;20099;-57
2021/11/01 13:49:47;;;;;;;19.20;12.57;;;;;;;12.98;100.00;99527.34;5027195;28;20537;-56
2021/11/01 13:52:39;;;;;;;14.95;10.30;;;;;;;13.48;100.00;99531.47;5027158;28;20175;-56
2021/11/01 13:55:20;;;;;;;14.70;10.00;;;;;;;12.95;100.00;99532.53;5026725;28;20060;-58
2021/11/01 13:58:13;;;;;;;14.88;10.07;;;;;;;12.98;100.00;99527.34;5027186;28;20044;-57
2021/11/01 14:00:47;;;;;;;13.30;8.18;;;;;;;12.98;100.00;99526.50;5026861;28;20610;-56
2021/11/01 14:03:27;;;;;;;10.75;5.95;;;;;;;12.68;100.00;99527.44;5026033;28;20049;-58
2021/11/01 14:14:09;;;;;;;8.73;3.92;;;;;;;13.27;100.00;99523.03;5024142;28;20037;-55
2021/11/01 14:16:46;;;;;;;5.28;3.28;;;;;;;13.43;100.00;99522.09;5024698;28;20061;-56
2021/11/01 14:27:37;;;;;;;6.80;3.42;;;;;;;13.23;100.00;99517.91;5025839;28;20580;-58
2021/11/01 14:33:55;;;;;;;4.85;3.25;;;;;;;13.37;100.00;99524.69;5026448;28;20087;-55
2021/11/01 14:55:47;;;;;;;4.00;1.80;;;;;;;12.01;100.00;99533.44;5025751;28;20546;-56
2021/11/01 15:00:48;;;;;;;6.20;2.45;;;;;;;11.96;100.00;99548.81;5026042;28;20374;-57
2021/11/01 16:20:26;;;;;;;7.03;3.05;;;;;;;10.94;100.00;99566.34;5014226;28;20037;-50
2021/11/01 16:23:02;;;;;;;5.85;3.33;;;;;;;11.03;100.00;99570.66;5008568;28;20410;-56
2021/11/01 16:25:30;;;;;;;5.40;3.67;;;;;;;11.12;100.00;99568.16;5008894;28;20104;-55
2021/11/01 16:27:56;;;;;;;7.05;3.13;;;;;;;11.10;100.00;99572.44;5012947;28;20045;-53
2021/11/01 16:30:23;;;;;;;5.28;2.83;;;;;;;10.95;100.00;99565.47;5014005;28;20045;-54
2021/11/01 16:33:04;;;;;;;4.97;3.25;;;;;;;11.26;100.00;99575.91;5016464;28;20120;-55
2021/11/01 16:35:37;;;;;;;6.90;3.15;;;;;;;11.29;100.00;99581.91;5016702;28;20479;-54
2021/11/01 16:38:10;;;;;;;5.85;3.05;;;;;;;11.08;100.00;99574.97;5015828;28;20039;-55
2021/11/01 16:40:39;;;;;;;5.80;2.80;;;;;;;10.83;100.00;99573.97;5018139;28;20033;-54
2021/11/01 16:43:13;;;;;;;7.60;3.22;;;;;;;10.55;100.00;99577.19;5015039;28;20049;-53
2021/11/01 16:45:39;;;;;;;5.53;3.38;;;;;;;10.63;100.00;99572.94;5018673;28;20040;-53
2021/11/01 16:48:07;;;;;;;6.22;3.03;;;;;;;10.83;100.00;99571.41;5024557;28;20099;-53
2021/11/01 16:50:33;;;;;;;5.63;2.95;;;;;;;10.93;100.00;99583.41;5009457;28;20034;-54
2021/11/01 16:52:59;;;;;;;4.85;2.58;;;;;;;10.44;100.00;99580.50;5004644;28;20037;-55
2021/11/01 16:55:30;;;;;;;8.10;3.17;;;;;;;10.00;100.00;99568.97;5004582;28;20049;-57
2021/11/01 16:58:03;;;;;;;7.88;4.13;;;;;;;9.95;100.00;99574.06;5004635;28;20042;-54
2021/11/01 17:08:40;;;;;;;10.68;5.70;;;;;;;9.33;100.00;99556.28;5004864;28;20109;-56
2021/11/01 17:36:22;;;;;;;11.52;7.60;;;;;;;9.91;100.00;99568.03;5015800;28;20044;-56
2021/11/01 18:53:23;;;;;;;7.57;4.55;;;;;;;9.86;100.00;99567.13;5015686;28;20037;-58
2021/11/01 18:55:55;;;;;;;7.55;4.50;;;;;;;9.45;100.00;99574.34;5017394;28;20163;-55
2021/11/01 18:58:27;;;;;;;5.35;3.78;;;;;;;9.28;100.00;99563.03;5015524;28;20037;-54
2021/11/01 19:00:57;;;;;;;5.88;3.70;;;;;;;9.75;100.00;99566.16;5021085;28;20038;-54
2021/11/01 19:03:26;;;;;;;8.65;4.22;;;;;;;9.93;100.00;99562.94;5020766;28;20030;-58
2021/11/01 19:06:16;;;;;;;4.40;3.45;;;;;;;10.03;100.00;99564.75;5020387;28;20526;-60
2021/11/01 19:08:57;;;;;;;8.07;4.15;;;;;;;10.00;100.00;99567.28;5020043;28;20349;-56
2021/11/01 19:12:06;;;;;;;8.20;4.25;;;;;;;10.06;100.00;99569.03;5020088;28;20056;-56
2021/11/01 20:05:03;;;;;;;8.50;4.13;;;;;;;10.23;100.00;99577.72;5025209;28;20552;-52
2021/11/01 20:15:53;;;;;;;8.05;4.00;;;;;;;10.29;100.00;99574.38;5023748;28;20137;-54
2021/11/01 21:25:49;;;;;;;4.22;2.33;;;;;;;9.89;100.00;99539.06;5016222;28;20628;-56
2021/11/01 21:28:15;;;;;;;4.95;2.40;;;;;;;9.83;100.00;99538.97;5017878;28;20706;-54
2021/11/01 21:30:41;;;;;;;2.85;2.30;;;;;;;9.90;100.00;99537.34;5017666;28;20053;-50
2021/11/01 21:33:09;;;;;;;3.35;2.67;;;;;;;9.95;100.00;99539.09;5020132;28;20108;-53
2021/11/01 21:35:42;;;;;;;4.97;2.28;;;;;;;9.91;100.00;99531.38;5016313;28;20445;-53
2021/11/01 21:38:08;;;;;;;3.50;2.20;;;;;;;9.72;100.00;99532.91;5019955;28;20518;-53
2021/11/01 21:40:34;;;;;;;4.57;2.38;;;;;;;9.66;100.00;99533.72;5020044;28;20034;-54
2021/11/01 21:42:59;;;;;;;2.78;1.83;;;;;;;9.91;100.00;99539.06;5017964;28;20083;-56
2021/11/01 21:45:25;;;;;;;3.65;2.55;;;;;;;9.84;100.00;99532.16;5017685;28;20079;-50
2021/11/01 21:47:50;;;;;;;4.53;2.33;;;;;;;9.81;100.00;99533.00;5017155;28;20041;-53
2021/11/01 21:50:16;;;;;;;3.75;2.10;;;;;;;9.88;100.00;99533.91;5015591;28;20026;-55
2021/11/01 21:52:44;;;;;;;4.78;1.88;;;;;;;9.63;100.00;99528.56;5019095;28;20437;-55
2021/11/01 21:55:10;;;;;;;3.85;2.50;;;;;;;9.71;100.00;99526.09;5019444;28;20041;-52
2021/11/01 22:19:08;;;;;;;4.53;2.08;;;;;;;9.44;100.00;99511.31;5014964;28;20049;-53
2021/11/01 22:46:36;;;;;;;6.28;2.80;;;;;;;9.71;100.00;99480.09;4937879;28;20436;-53
2021/11/01 22:57:09;;;;;;;5.50;2.72;;;;;;;9.77;100.00;99479.28;5018310;28;20084;-55
2021/11/01 22:59:35;;;;;;;4.05;2.80;;;;;;;9.68;100.00;99473.22;5015703;28;20033;-53
2021/11/01 23:02:01;;;;;;;8.45;3.75;;;;;;;9.40;100.00;99466.97;5017029;28;20037;-56
2021/11/01 23:04:42;;;;;;;4.63;3.10;;;;;;;9.54;100.00;99463.72;5013581;28;20041;-54
2021/11/01 23:31:48;;;;;;;8.18;4.03;;;;;;;9.81;100.00;99458.88;5018006;28;20036;-52
2021/11/01 23:34:16;;;;;;;4.15;3.00;;;;;;;9.19;100.00;99453.97;5017718;28;20037;-54
2021/11/01 23:36:43;;;;;;;6.72;3.22;;;;;;;9.30;100.00;99449.84;5014429;28;20064;-54
2021/11/01 23:39:13;;;;;;;4.40;2.72;;;;;;;9.63;100.00;99451.88;5017550;28;20041;-51
2021/11/01 23:41:45;;;;;;;6.57;3.08;;;;;;;9.97;100.00;99454.72;5016647;28;20497;-54
2021/11/01 23:44:11;;;;;;;5.75;2.80;;;;;;;9.95;100.00;99451.31;5015647;28;20073;-56
2021/11/01 23:46:38;;;;;;;3.55;2.67;;;;;;;9.44;100.00;99450.84;5014538;28;20092;-52
2021/11/01 23:49:05;;;;;;;6.60;3.33;;;;;;;9.29;100.00;99447.25;5015633;28;20044;-52
2021/11/01 23:51:32;;;;;;;6.78;3.10;;;;;;;9.34;100.00;99451.59;5013636;28;20034;-52